createdAt,value
2022-12-09T00:01:07.137Z,11.30
2022-12-09T00:03:34.627Z,12.50
2022-12-09T00:06:19.870Z,12.77
2022-12-09T00:08:47.405Z,13.17
2022-12-09T00:11:14.219Z,12.00
2022-12-09T00:13:41.160Z,12.67
2022-12-09T00:16:10.806Z,13.20
2022-12-09T00:18:38.232Z,13.13
2022-12-09T00:21:26.427Z,11.97
2022-12-09T00:23:55.724Z,11.90
2022-12-09T00:26:24.509Z,13.20
2022-12-09T00:28:52.454Z,12.23
2022-12-09T00:31:24.315Z,12.73
2022-12-09T00:33:52.693Z,12.40
2022-12-09T00:36:22.039Z,12.87
2022-12-09T00:38:49.265Z,11.77
2022-12-09T00:41:17.035Z,13.07
2022-12-09T00:43:44.353Z,12.67
2022-12-09T00:46:12.680Z,11.97
2022-12-09T00:48:39.705Z,12.57
2022-12-09T00:51:08.210Z,12.33
2022-12-09T00:53:35.203Z,12.80
2022-12-09T00:56:02.290Z,12.10
2022-12-09T00:58:29.133Z,12.50
2022-12-09T01:00:56.787Z,12.83
2022-12-09T01:03:24.146Z,13.20
2022-12-09T01:05:51.154Z,13.07
2022-12-09T01:08:18.644Z,13.60
2022-12-09T01:10:46.379Z,14.30
2022-12-09T01:13:14.903Z,13.13
2022-12-09T01:15:42.443Z,13.90
2022-12-09T01:18:11.230Z,14.03
2022-12-09T01:20:37.982Z,13.30
2022-12-09T01:23:04.776Z,13.50
2022-12-09T01:25:31.707Z,12.97
2022-12-09T01:27:58.597Z,12.43
2022-12-09T01:30:25.874Z,14.17
2022-12-09T01:32:52.702Z,15.37
2022-12-09T01:35:19.965Z,14.73
2022-12-09T01:37:46.822Z,14.50
2022-12-09T01:40:17.788Z,13.93
2022-12-09T01:42:45.517Z,14.53
2022-12-09T01:45:30.310Z,15.47
2022-12-09T01:48:03.844Z,14.67
2022-12-09T01:50:32.769Z,14.30
2022-12-09T01:52:59.873Z,13.90
2022-12-09T01:55:27.471Z,14.63
2022-12-09T01:57:54.641Z,14.93
2022-12-09T02:00:21.765Z,16.10
2022-12-09T02:02:49.663Z,14.80
2022-12-09T02:05:17.267Z,15.70
2022-12-09T02:07:44.575Z,15.37
2022-12-09T02:10:15.376Z,14.77
2022-12-09T02:12:59.964Z,14.13
2022-12-09T02:15:50.989Z,14.83
2022-12-09T02:18:17.980Z,14.10
2022-12-09T02:21:00.233Z,14.17
2022-12-09T02:23:39.940Z,14.53
2022-12-09T02:26:34.431Z,14.73
2022-12-09T02:29:21.049Z,15.27
2022-12-09T02:32:09.709Z,15.33
2022-12-09T02:34:44.256Z,14.80
2022-12-09T02:37:24.153Z,15.87
2022-12-09T02:40:02.327Z,15.23
2022-12-09T02:42:33.472Z,15.40
2022-12-09T02:45:03.949Z,14.97
2022-12-09T02:47:34.854Z,15.80
2022-12-09T02:50:06.396Z,16.60
2022-12-09T02:52:35.635Z,17.77
2022-12-09T02:55:06.889Z,16.90
2022-12-09T02:57:37.207Z,15.97
2022-12-09T03:00:07.560Z,15.87
2022-12-09T03:02:44.900Z,16.10
2022-12-09T03:05:21.332Z,15.93
2022-12-09T03:08:06.446Z,17.27
2022-12-09T03:11:02.252Z,16.30
2022-12-09T03:13:32.146Z,14.97
2022-12-09T03:16:21.763Z,15.07
2022-12-09T03:18:55.692Z,16.93
2022-12-09T03:21:25.620Z,15.37
2022-12-09T03:23:56.341Z,16.40
2022-12-09T03:26:27.524Z,16.30
2022-12-09T03:28:56.036Z,15.07
2022-12-09T03:31:27.149Z,15.50
2022-12-09T03:33:57.896Z,17.27
2022-12-09T03:36:27.914Z,16.20
2022-12-09T03:38:55.669Z,15.50
2022-12-09T03:41:25.583Z,15.33
2022-12-09T03:44:04.659Z,16.43
2022-12-09T03:46:32.170Z,15.03
2022-12-09T03:48:59.241Z,14.33
2022-12-09T03:51:31.570Z,15.70
2022-12-09T03:54:06.100Z,16.70
2022-12-09T03:56:37.535Z,16.20
2022-12-09T03:59:09.546Z,14.23
2022-12-09T04:01:37.022Z,15.27
2022-12-09T04:04:04.077Z,15.30
2022-12-09T04:06:31.086Z,16.53
2022-12-09T04:09:02.157Z,15.20
2022-12-09T04:11:30.917Z,15.17
2022-12-09T04:13:57.790Z,15.27
2022-12-09T04:16:24.671Z,15.67
2022-12-09T04:18:51.600Z,15.77
2022-12-09T04:21:18.402Z,15.53
2022-12-09T04:23:45.135Z,15.03
2022-12-09T04:26:19.269Z,17.90
2022-12-09T04:28:46.089Z,15.87
2022-12-09T04:31:14.601Z,15.17
2022-12-09T04:33:41.912Z,16.40
2022-12-09T04:36:11.926Z,17.37
2022-12-09T04:38:39.151Z,18.47
2022-12-09T04:41:06.390Z,15.83
2022-12-09T04:43:33.623Z,17.60
2022-12-09T04:46:07.311Z,17.03
2022-12-09T04:48:34.304Z,16.93
2022-12-09T04:51:01.361Z,17.63
2022-12-09T04:53:28.574Z,17.40
2022-12-09T04:56:08.630Z,18.70
2022-12-09T04:58:35.672Z,19.03
2022-12-09T05:01:10.622Z,18.63
2022-12-09T05:03:38.624Z,19.17
2022-12-09T05:06:07.996Z,17.37
2022-12-09T05:08:35.201Z,17.77
2022-12-09T05:11:02.491Z,17.73
2022-12-09T05:13:29.845Z,18.70
2022-12-09T05:16:00.598Z,17.43
2022-12-09T05:18:29.010Z,17.43
2022-12-09T05:20:56.662Z,18.87
2022-12-09T05:23:23.817Z,18.40
2022-12-09T05:25:50.733Z,17.43
2022-12-09T05:28:17.832Z,18.57
2022-12-09T05:30:44.711Z,18.17
2022-12-09T05:33:12.303Z,18.27
2022-12-09T05:35:49.206Z,18.53
2022-12-09T05:38:19.544Z,18.93
2022-12-09T05:40:46.602Z,18.63
2022-12-09T05:43:13.854Z,18.57
2022-12-09T05:45:40.913Z,19.87
2022-12-09T05:48:07.747Z,19.40
2022-12-09T05:50:34.804Z,18.90
2022-12-09T05:53:02.071Z,18.77
2022-12-09T05:55:29.093Z,18.67
2022-12-09T05:57:56.195Z,19.17
2022-12-09T06:00:23.365Z,17.93
2022-12-09T06:02:50.407Z,18.30
2022-12-09T06:05:18.519Z,19.40
2022-12-09T06:07:45.878Z,19.03
2022-12-09T06:10:13.402Z,18.70
2022-12-09T06:12:40.440Z,17.87
2022-12-09T06:15:10.575Z,18.77
2022-12-09T06:17:38.731Z,20.00
2022-12-09T06:20:07.100Z,21.10
2022-12-09T06:22:35.013Z,19.47
2022-12-09T06:25:01.864Z,19.87
2022-12-09T06:27:28.748Z,19.93
2022-12-09T06:29:55.879Z,19.40
2022-12-09T06:32:23.238Z,20.47
2022-12-09T06:34:50.162Z,19.67
2022-12-09T06:37:17.694Z,20.00
2022-12-09T06:39:44.914Z,20.03
2022-12-09T06:42:11.964Z,19.97
2022-12-09T06:44:40.205Z,18.87
2022-12-09T06:47:08.415Z,21.50
2022-12-09T06:49:36.068Z,20.07
2022-12-09T06:52:03.185Z,19.77
2022-12-09T06:54:30.359Z,19.57
2022-12-09T06:56:57.207Z,21.13
2022-12-09T06:59:25.488Z,21.20
2022-12-09T07:01:52.651Z,20.10
2022-12-09T07:04:19.685Z,19.53
2022-12-09T07:06:47.081Z,19.33
2022-12-09T07:09:23.701Z,20.43
2022-12-09T07:11:51.506Z,20.00
2022-12-09T07:14:19.320Z,19.10
2022-12-09T07:16:46.940Z,18.93
2022-12-09T07:19:19.937Z,19.10
2022-12-09T07:21:47.798Z,17.93
2022-12-09T07:24:15.449Z,19.60
2022-12-09T07:26:42.653Z,18.37
2022-12-09T07:29:09.886Z,18.97
2022-12-09T07:31:36.883Z,17.20
2022-12-09T07:34:05.006Z,16.80
2022-12-09T07:36:33.787Z,18.83
2022-12-09T07:39:03.959Z,17.50
2022-12-09T07:41:31.155Z,17.67
2022-12-09T07:43:58.004Z,17.40
2022-12-09T07:46:27.635Z,17.07
2022-12-09T07:48:55.516Z,17.97
2022-12-09T07:51:24.357Z,18.33
2022-12-09T07:53:51.692Z,20.30
2022-12-09T07:56:19.558Z,16.70
2022-12-09T07:58:47.804Z,17.67
2022-12-09T08:01:17.345Z,16.97
2022-12-09T08:03:45.127Z,17.67
2022-12-09T08:06:15.141Z,16.87
2022-12-09T08:08:43.081Z,16.53
2022-12-09T08:11:15.481Z,16.20
2022-12-09T08:13:43.165Z,17.93
2022-12-09T08:16:12.409Z,18.17
2022-12-09T08:18:40.289Z,16.13
2022-12-09T08:21:11.038Z,16.30
2022-12-09T08:23:38.817Z,16.60
2022-12-09T08:26:06.285Z,16.43
2022-12-09T08:28:33.291Z,14.70
2022-12-09T08:31:07.716Z,16.60
2022-12-09T08:33:35.425Z,15.80
2022-12-09T08:36:04.586Z,15.70
2022-12-09T08:38:32.037Z,16.67
2022-12-09T08:40:59.256Z,17.10
2022-12-09T08:43:26.379Z,15.60
2022-12-09T08:45:53.228Z,16.67
2022-12-09T08:48:20.500Z,16.63
2022-12-09T08:50:48.665Z,16.30
2022-12-09T08:53:15.475Z,17.03
2022-12-09T08:55:42.903Z,17.23
2022-12-09T08:58:09.840Z,16.47
2022-12-09T09:00:36.594Z,16.20
2022-12-09T09:03:04.216Z,16.87
2022-12-09T09:05:32.052Z,18.07
2022-12-09T09:08:00.176Z,17.17
2022-12-09T09:10:27.733Z,17.43
2022-12-09T09:12:54.899Z,16.80
2022-12-09T09:15:22.130Z,17.40
2022-12-09T09:17:51.814Z,16.77
2022-12-09T09:20:19.968Z,16.63
2022-12-09T09:22:47.042Z,16.33
2022-12-09T09:25:14.695Z,17.03
2022-12-09T09:27:42.121Z,16.43
2022-12-09T09:30:10.314Z,17.80
2022-12-09T09:32:37.417Z,16.03
2022-12-09T09:35:05.412Z,17.83
2022-12-09T09:37:32.995Z,16.63
2022-12-09T09:39:59.829Z,17.60
2022-12-09T09:42:35.725Z,16.43
2022-12-09T09:45:10.623Z,16.17
2022-12-09T09:47:43.335Z,17.97
2022-12-09T09:50:31.764Z,14.80
2022-12-09T09:53:02.517Z,17.10
2022-12-09T09:56:00.823Z,16.47
2022-12-09T09:58:49.549Z,16.13
2022-12-09T10:01:19.070Z,16.87
2022-12-09T10:04:03.062Z,16.67
2022-12-09T10:07:10.664Z,16.90
2022-12-09T10:09:41.471Z,16.17
2022-12-09T10:12:36.856Z,15.43
2022-12-09T10:15:14.469Z,15.60
2022-12-09T10:17:54.176Z,15.67
2022-12-09T10:20:28.652Z,15.57
2022-12-09T10:23:07.218Z,15.30
2022-12-09T10:25:37.969Z,14.60
2022-12-09T10:28:16.140Z,14.97
2022-12-09T10:30:45.029Z,14.97
2022-12-09T10:33:14.196Z,15.50
2022-12-09T10:35:41.816Z,16.20
2022-12-09T10:38:17.546Z,16.43
2022-12-09T10:40:48.101Z,15.37
2022-12-09T10:43:55.156Z,15.70
2022-12-09T10:46:24.908Z,16.07
2022-12-09T10:48:57.413Z,15.80
2022-12-09T10:51:28.182Z,16.97
2022-12-09T10:54:02.691Z,15.10
2022-12-09T10:56:34.231Z,16.23
2022-12-09T10:59:13.717Z,16.70
2022-12-09T11:02:01.849Z,16.30
2022-12-09T11:04:35.088Z,16.00
2022-12-09T11:07:10.210Z,17.30
2022-12-09T11:09:41.867Z,17.80
2022-12-09T11:12:29.987Z,16.30
2022-12-09T11:15:02.104Z,16.33
2022-12-09T11:17:42.289Z,15.80
2022-12-09T11:20:22.646Z,15.37
2022-12-09T11:23:21.330Z,15.67
2022-12-09T11:26:21.735Z,15.57
2022-12-09T11:29:15.843Z,15.07
2022-12-09T11:31:43.677Z,14.83
2022-12-09T11:34:26.346Z,16.63
2022-12-09T11:36:56.650Z,15.70
2022-12-09T11:39:33.331Z,16.90
2022-12-09T11:42:18.593Z,15.60
2022-12-09T11:45:00.609Z,15.60
2022-12-09T11:47:50.477Z,15.17
2022-12-09T11:50:32.457Z,14.93
2022-12-09T11:53:13.034Z,15.83
2022-12-09T11:55:58.305Z,14.90
2022-12-09T11:58:40.488Z,15.77
2022-12-09T12:01:15.824Z,15.00
2022-12-09T12:03:47.269Z,15.67
2022-12-09T12:06:28.843Z,15.33
2022-12-09T12:09:05.715Z,15.20
2022-12-09T12:11:46.586Z,15.87
2022-12-09T12:14:17.592Z,15.37
2022-12-09T12:16:53.278Z,15.07
2022-12-09T12:19:23.397Z,15.13
2022-12-09T12:22:07.082Z,14.20
2022-12-09T12:24:56.742Z,15.37
2022-12-09T12:27:56.924Z,16.07
2022-12-09T12:30:33.160Z,15.33
2022-12-09T12:36:28.392Z,16.43
2022-12-09T12:39:13.937Z,14.23
2022-12-09T12:41:50.331Z,14.43
2022-12-09T12:44:44.264Z,14.97
2022-12-09T12:47:11.038Z,15.67
2022-12-09T12:49:56.301Z,14.73
2022-12-09T12:55:43.790Z,14.13
2022-12-09T12:58:38.372Z,15.60
2022-12-09T13:01:33.441Z,15.60
2022-12-09T13:04:19.224Z,14.23
2022-12-09T13:06:45.876Z,13.63
2022-12-09T13:09:29.332Z,14.73
2022-12-09T13:12:45.331Z,16.00
2022-12-09T13:15:18.311Z,14.70
2022-12-09T13:17:48.061Z,14.90
2022-12-09T13:20:48.931Z,15.00
2022-12-09T13:23:30.899Z,14.40
2022-12-09T13:26:33.948Z,14.13
2022-12-09T13:29:34.774Z,14.13
2022-12-09T13:32:21.633Z,14.13
2022-12-09T13:34:55.497Z,14.43
2022-12-09T13:37:34.704Z,14.50
2022-12-09T13:40:02.938Z,13.33
2022-12-09T13:42:48.080Z,13.13
2022-12-09T13:45:22.370Z,13.13
2022-12-09T13:47:49.345Z,15.70
2022-12-09T13:50:57.218Z,14.47
2022-12-09T13:53:34.007Z,13.87
2022-12-09T13:56:16.038Z,12.53
2022-12-09T13:59:13.538Z,12.33
2022-12-09T14:01:50.991Z,12.63
2022-12-09T14:04:33.738Z,11.57
2022-12-09T14:07:09.644Z,11.67
2022-12-09T14:09:50.894Z,12.40
2022-12-09T14:12:26.730Z,12.17
2022-12-09T14:15:17.585Z,11.33
2022-12-09T14:18:04.621Z,11.70
2022-12-09T14:20:38.134Z,12.03
2022-12-09T14:23:07.951Z,12.10
2022-12-09T14:25:34.649Z,11.17
2022-12-09T14:28:25.429Z,13.43
2022-12-09T14:31:06.701Z,12.07
2022-12-09T14:33:36.845Z,13.50
2022-12-09T14:36:23.127Z,12.20
2022-12-09T14:39:25.668Z,12.17
2022-12-09T14:41:58.797Z,11.93
2022-12-09T14:44:44.260Z,13.23
2022-12-09T14:47:20.394Z,13.27
2022-12-09T14:49:49.599Z,13.43
2022-12-09T14:52:30.519Z,13.13
2022-12-09T14:55:00.138Z,12.30
2022-12-09T14:57:48.072Z,11.53
2022-12-09T15:00:44.212Z,12.27
2022-12-09T15:03:45.362Z,11.30
2022-12-09T15:06:17.637Z,12.37
2022-12-09T15:08:45.074Z,11.67
2022-12-09T15:11:18.243Z,12.07
2022-12-09T15:13:48.177Z,12.27
2022-12-09T15:16:24.285Z,11.47
2022-12-09T15:18:52.531Z,11.23
2022-12-09T15:21:32.729Z,11.57
2022-12-09T15:24:00.568Z,11.23
2022-12-09T15:26:29.453Z,12.37
2022-12-09T15:28:57.489Z,12.23
2022-12-09T15:31:27.051Z,11.87
2022-12-09T15:34:00.007Z,12.27
2022-12-09T15:36:32.560Z,12.87
2022-12-09T15:39:08.375Z,12.70
2022-12-09T15:41:59.223Z,13.23
2022-12-09T15:44:27.554Z,12.30
2022-12-09T15:46:57.057Z,12.43
2022-12-09T15:49:31.865Z,12.47
2022-12-09T15:52:02.010Z,11.93
2022-12-09T15:54:37.988Z,11.53
2022-12-09T15:57:07.213Z,11.70
2022-12-09T15:59:40.820Z,11.97
2022-12-09T16:02:19.875Z,11.60
2022-12-09T16:04:48.686Z,12.80
2022-12-09T16:07:18.944Z,11.77
2022-12-09T16:10:16.211Z,11.73
2022-12-09T16:12:43.913Z,12.90
2022-12-09T16:15:14.166Z,12.77
2022-12-09T16:17:55.333Z,13.27
2022-12-09T16:20:35.167Z,11.23
2022-12-09T16:23:03.687Z,13.03
2022-12-09T16:25:38.378Z,12.10
2022-12-09T16:28:06.965Z,12.13
2022-12-09T16:30:44.642Z,11.97
2022-12-09T16:33:20.344Z,12.27
2022-12-09T16:35:56.931Z,11.60
2022-12-09T16:38:24.319Z,13.07
2022-12-09T16:40:53.781Z,12.47
2022-12-09T16:43:25.213Z,13.27
2022-12-09T16:45:54.223Z,12.57
2022-12-09T16:48:23.202Z,12.50
2022-12-09T16:51:14.259Z,12.80
2022-12-09T16:53:46.422Z,12.50
2022-12-09T16:56:30.920Z,10.73
2022-12-09T16:58:59.270Z,12.70
2022-12-09T17:01:31.837Z,12.97
2022-12-09T17:04:04.299Z,11.93
2022-12-09T17:06:31.558Z,13.00
2022-12-09T17:08:58.349Z,12.40
2022-12-09T17:11:25.197Z,12.70
2022-12-09T17:13:52.464Z,12.13
2022-12-09T17:16:22.201Z,13.70
2022-12-09T17:18:49.581Z,13.23
2022-12-09T17:21:16.803Z,12.73
2022-12-09T17:23:43.521Z,12.97
2022-12-09T17:26:12.994Z,12.70
2022-12-09T17:28:40.743Z,13.43
2022-12-09T17:31:09.665Z,12.37
2022-12-09T17:33:36.881Z,13.13
2022-12-09T17:36:03.802Z,13.47
2022-12-09T17:38:30.687Z,12.17
2022-12-09T17:41:02.149Z,12.40
2022-12-09T17:43:28.822Z,12.73
2022-12-09T17:45:58.030Z,13.67
2022-12-09T17:48:24.777Z,14.03
2022-12-09T17:50:51.451Z,13.83
2022-12-09T17:53:18.178Z,12.93
2022-12-09T17:55:44.883Z,14.10
2022-12-09T17:58:11.631Z,13.27
2022-12-09T18:00:39.645Z,12.87
2022-12-09T18:03:07.146Z,13.70
2022-12-09T18:05:38.348Z,12.80
2022-12-09T18:08:06.228Z,12.87
2022-12-09T18:10:33.309Z,13.17
2022-12-09T18:12:59.972Z,12.50
2022-12-09T18:15:27.351Z,13.27
2022-12-09T18:17:54.121Z,13.13
2022-12-09T18:20:20.802Z,12.47
2022-12-09T18:22:47.501Z,12.17
2022-12-09T18:25:14.215Z,13.97
2022-12-09T18:27:40.992Z,12.47
2022-12-09T18:30:08.632Z,13.13
2022-12-09T18:32:36.326Z,13.03
2022-12-09T18:35:03.384Z,13.90
2022-12-09T18:37:30.627Z,13.73
2022-12-09T18:39:57.351Z,13.77
2022-12-09T18:42:24.094Z,13.07
2022-12-09T18:44:50.806Z,14.50
2022-12-09T18:47:17.864Z,15.30
2022-12-09T18:49:44.669Z,14.10
2022-12-09T18:52:11.425Z,14.60
2022-12-09T18:54:38.249Z,14.03
2022-12-09T18:57:04.980Z,14.63
2022-12-09T18:59:31.887Z,15.47
2022-12-09T19:01:58.807Z,13.67
2022-12-09T19:04:28.062Z,15.50
2022-12-09T19:07:00.167Z,14.93
2022-12-09T19:09:31.902Z,14.00
2022-12-09T19:12:16.610Z,14.20
2022-12-09T19:14:46.191Z,14.53
2022-12-09T19:17:12.891Z,13.23
2022-12-09T19:19:39.697Z,14.60
2022-12-09T19:22:08.236Z,13.63
2022-12-09T19:24:39.818Z,14.37
2022-12-09T19:27:09.587Z,13.07
2022-12-09T19:29:36.474Z,13.23
2022-12-09T19:32:03.339Z,13.60
2022-12-09T19:34:30.836Z,13.17
2022-12-09T19:37:00.405Z,13.87
2022-12-09T19:39:33.914Z,13.40
2022-12-09T19:42:01.348Z,13.70
2022-12-09T19:44:59.488Z,14.30
2022-12-09T19:47:15.320Z,13.17
2022-12-09T19:49:44.325Z,14.20
2022-12-09T19:52:12.052Z,13.00
2022-12-09T19:54:39.117Z,13.03
2022-12-09T19:57:06.507Z,13.33
2022-12-09T19:59:33.292Z,13.17
2022-12-09T20:02:00.478Z,14.50
2022-12-09T20:07:15.124Z,14.77
2022-12-09T20:09:41.855Z,13.03
2022-12-09T20:12:08.634Z,12.87
2022-12-09T20:14:35.748Z,14.10
2022-12-09T20:17:02.501Z,15.03
2022-12-09T20:19:29.332Z,14.37
2022-12-09T20:21:56.115Z,14.67
2022-12-09T20:24:23.251Z,14.53
2022-12-09T20:26:50.093Z,14.93
2022-12-09T20:29:16.955Z,14.57
2022-12-09T20:31:43.743Z,13.73
2022-12-09T20:34:16.142Z,13.93
2022-12-09T20:36:44.984Z,14.40
2022-12-09T20:39:18.003Z,14.73
2022-12-09T20:41:45.310Z,13.43
2022-12-09T20:44:13.072Z,13.77
2022-12-09T20:46:41.526Z,15.17
2022-12-09T20:49:09.635Z,14.70
2022-12-09T20:51:38.798Z,13.80
2022-12-09T20:54:06.279Z,14.53
2022-12-09T20:56:34.076Z,14.33
2022-12-09T20:59:00.919Z,15.63
2022-12-09T21:01:30.207Z,14.90
2022-12-09T21:03:59.056Z,15.37
2022-12-09T21:06:32.287Z,15.50
2022-12-09T21:09:04.409Z,14.57
2022-12-09T21:11:32.477Z,15.40
2022-12-09T21:14:02.043Z,14.63
2022-12-09T21:16:32.129Z,15.00
2022-12-09T21:19:05.735Z,16.40
2022-12-09T21:21:34.811Z,14.03
2022-12-09T21:24:02.351Z,14.70
2022-12-09T21:26:29.451Z,15.83
2022-12-09T21:28:58.123Z,14.80
2022-12-09T21:31:27.529Z,15.50
2022-12-09T21:33:56.607Z,15.40
2022-12-09T21:36:26.399Z,14.47
2022-12-09T21:38:53.862Z,14.33
2022-12-09T21:41:26.647Z,15.07
2022-12-09T21:43:55.148Z,14.90
2022-12-09T21:46:27.639Z,16.43
2022-12-09T21:49:00.126Z,15.67
2022-12-09T21:51:30.611Z,16.30
2022-12-09T21:53:57.551Z,16.00
2022-12-09T21:56:26.658Z,15.97
2022-12-09T21:58:56.215Z,14.97
2022-12-09T22:01:32.039Z,16.73
2022-12-09T22:04:00.688Z,15.53
2022-12-09T22:06:27.819Z,16.67
2022-12-09T22:08:54.970Z,16.10
2022-12-09T22:11:31.802Z,15.73
2022-12-09T22:14:00.289Z,18.50
2022-12-09T22:16:31.019Z,17.07
2022-12-09T22:18:59.143Z,16.57
2022-12-09T22:21:28.868Z,17.27
2022-12-09T22:23:58.711Z,17.33
2022-12-09T22:26:26.324Z,17.10
2022-12-09T22:28:54.099Z,16.17
2022-12-09T22:31:24.321Z,16.97
2022-12-09T22:33:53.707Z,15.43
2022-12-09T22:36:20.853Z,16.90
2022-12-09T22:38:48.745Z,17.37
2022-12-09T22:41:19.027Z,16.00
2022-12-09T22:43:46.223Z,16.43
2022-12-09T22:46:23.059Z,17.33
2022-12-09T22:48:49.999Z,16.23
2022-12-09T22:51:20.573Z,15.90
2022-12-09T22:53:48.285Z,16.40
2022-12-09T22:56:15.045Z,15.00
2022-12-09T22:58:41.871Z,16.20
2022-12-09T23:01:19.932Z,16.73
2022-12-09T23:03:47.027Z,16.67
2022-12-09T23:06:14.141Z,15.50
2022-12-09T23:08:42.627Z,17.40
2022-12-09T23:11:12.847Z,15.50
2022-12-09T23:13:41.404Z,17.07
2022-12-09T23:16:12.534Z,15.53
2022-12-09T23:18:40.140Z,16.83
2022-12-09T23:21:21.839Z,18.70
2022-12-09T23:23:51.379Z,16.37
2022-12-09T23:26:20.468Z,16.17
2022-12-09T23:28:50.173Z,23.55
2022-12-09T23:31:19.523Z,18.10
2022-12-09T23:33:48.255Z,17.77
2022-12-09T23:36:17.671Z,17.37
2022-12-09T23:38:44.939Z,17.13
2022-12-09T23:41:12.593Z,16.57
2022-12-09T23:43:39.722Z,16.17
2022-12-09T23:46:14.847Z,17.40
2022-12-09T23:48:43.031Z,17.83
2022-12-09T23:51:13.691Z,15.47
2022-12-09T23:53:41.538Z,15.87
2022-12-09T23:56:12.612Z,17.57
2022-12-09T23:58:39.967Z,17.60
